sensor_id;sensor_type;location;lat;lon;timestamp;pressure;altitude;pressure_sealevel;temperature
67829;BMP280;54626;45.436;10.942;2023-05-24T00:00:14;100316.44;;;21.02
67829;BMP280;54626;45.436;10.942;2023-05-24T00:02:41;100312.56;;;20.96
67829;BMP280;54626;45.436;10.942;2023-05-24T00:05:08;100311.72;;;20.93
67829;BMP280;54626;45.436;10.942;2023-05-24T00:07:36;100315.03;;;20.90
67829;BMP280;54626;45.436;10.942;2023-05-24T00:10:04;100314.28;;;20.89
67829;BMP280;54626;45.436;10.942;2023-05-24T00:12:31;100307.19;;;20.88
67829;BMP280;54626;45.436;10.942;2023-05-24T00:14:58;100312.09;;;20.88
67829;BMP280;54626;45.436;10.942;2023-05-24T00:17:25;100310.72;;;20.75
67829;BMP280;54626;45.436;10.942;2023-05-24T00:19:52;100313.94;;;20.58
67829;BMP280;54626;45.436;10.942;2023-05-24T00:22:19;100314.44;;;20.55
67829;BMP280;54626;45.436;10.942;2023-05-24T00:24:48;100310.28;;;20.56
67829;BMP280;54626;45.436;10.942;2023-05-24T00:27:15;100306.72;;;20.55
67829;BMP280;54626;45.436;10.942;2023-05-24T00:29:41;100310.16;;;20.54
67829;BMP280;54626;45.436;10.942;2023-05-24T00:32:08;100322.00;;;20.53
67829;BMP280;54626;45.436;10.942;2023-05-24T00:34:35;100314.22;;;20.51
67829;BMP280;54626;45.436;10.942;2023-05-24T00:37:01;100320.94;;;20.46
67829;BMP280;54626;45.436;10.942;2023-05-24T00:39:28;100320.31;;;20.48
67829;BMP280;54626;45.436;10.942;2023-05-24T00:41:55;100313.75;;;20.43
67829;BMP280;54626;45.436;10.942;2023-05-24T00:44:21;100324.25;;;20.43
67829;BMP280;54626;45.436;10.942;2023-05-24T00:49:29;100311.41;;;20.40
67829;BMP280;54626;45.436;10.942;2023-05-24T00:51:56;100304.69;;;20.33
67829;BMP280;54626;45.436;10.942;2023-05-24T00:54:23;100303.34;;;20.34
67829;BMP280;54626;45.436;10.942;2023-05-24T00:57:05;100306.56;;;20.29
67829;BMP280;54626;45.436;10.942;2023-05-24T01:02:07;100305.09;;;20.16
67829;BMP280;54626;45.436;10.942;2023-05-24T01:04:47;100303.63;;;20.15
67829;BMP280;54626;45.436;10.942;2023-05-24T01:07:27;100300.09;;;20.03
67829;BMP280;54626;45.436;10.942;2023-05-24T01:10:02;100295.00;;;19.89
67829;BMP280;54626;45.436;10.942;2023-05-24T01:15:41;100293.66;;;19.78
67829;BMP280;54626;45.436;10.942;2023-05-24T01:18:15;100286.59;;;19.77
67829;BMP280;54626;45.436;10.942;2023-05-24T01:20:45;100282.91;;;19.75
67829;BMP280;54626;45.436;10.942;2023-05-24T01:23:30;100285.97;;;19.79
67829;BMP280;54626;45.436;10.942;2023-05-24T01:26:07;100280.84;;;19.75
67829;BMP280;54626;45.436;10.942;2023-05-24T01:28:38;100287.94;;;19.65
67829;BMP280;54626;45.436;10.942;2023-05-24T01:31:05;100280.59;;;19.60
67829;BMP280;54626;45.436;10.942;2023-05-24T01:33:56;100283.28;;;19.58
67829;BMP280;54626;45.436;10.942;2023-05-24T01:36:22;100289.00;;;19.48
67829;BMP280;54626;45.436;10.942;2023-05-24T01:38:49;100286.66;;;19.45
67829;BMP280;54626;45.436;10.942;2023-05-24T01:42:39;100277.66;;;19.35
67829;BMP280;54626;45.436;10.942;2023-05-24T01:44:46;100281.91;;;19.36
67829;BMP280;54626;45.436;10.942;2023-05-24T01:50:31;100283.97;;;19.36
67829;BMP280;54626;45.436;10.942;2023-05-24T01:53:08;100287.25;;;19.32
67829;BMP280;54626;45.436;10.942;2023-05-24T01:55:38;100291.16;;;19.27
67829;BMP280;54626;45.436;10.942;2023-05-24T02:01:47;100292.72;;;19.19
67829;BMP280;54626;45.436;10.942;2023-05-24T02:04:15;100285.53;;;19.16
67829;BMP280;54626;45.436;10.942;2023-05-24T02:06:51;100286.34;;;19.07
67829;BMP280;54626;45.436;10.942;2023-05-24T02:09:17;100282.09;;;19.06
67829;BMP280;54626;45.436;10.942;2023-05-24T02:11:44;100277.34;;;19.08
67829;BMP280;54626;45.436;10.942;2023-05-24T02:14:13;100285.34;;;19.02
67829;BMP280;54626;45.436;10.942;2023-05-24T02:16:40;100287.19;;;18.98
67829;BMP280;54626;45.436;10.942;2023-05-24T02:19:12;100296.06;;;18.94
67829;BMP280;54626;45.436;10.942;2023-05-24T02:21:39;100295.53;;;18.86
67829;BMP280;54626;45.436;10.942;2023-05-24T02:24:06;100289.47;;;18.90
67829;BMP280;54626;45.436;10.942;2023-05-24T02:26:51;100283.13;;;18.89
67829;BMP280;54626;45.436;10.942;2023-05-24T02:29:21;100285.91;;;18.89
67829;BMP280;54626;45.436;10.942;2023-05-24T02:31:48;100283.47;;;18.84
67829;BMP280;54626;45.436;10.942;2023-05-24T02:34:20;100282.84;;;18.74
67829;BMP280;54626;45.436;10.942;2023-05-24T02:36:49;100284.28;;;18.75
67829;BMP280;54626;45.436;10.942;2023-05-24T02:39:15;100280.97;;;18.67
67829;BMP280;54626;45.436;10.942;2023-05-24T02:42:02;100283.56;;;18.75
67829;BMP280;54626;45.436;10.942;2023-05-24T02:44:33;100289.63;;;18.71
67829;BMP280;54626;45.436;10.942;2023-05-24T02:47:00;100287.69;;;18.74
67829;BMP280;54626;45.436;10.942;2023-05-24T02:49:30;100286.22;;;18.73
67829;BMP280;54626;45.436;10.942;2023-05-24T02:51:58;100289.97;;;18.66
67829;BMP280;54626;45.436;10.942;2023-05-24T02:54:30;100292.13;;;18.56
67829;BMP280;54626;45.436;10.942;2023-05-24T02:56:59;100300.72;;;18.48
67829;BMP280;54626;45.436;10.942;2023-05-24T02:59:27;100295.56;;;18.45
67829;BMP280;54626;45.436;10.942;2023-05-24T03:01:58;100294.09;;;18.44
67829;BMP280;54626;45.436;10.942;2023-05-24T03:04:41;100286.25;;;18.52
67829;BMP280;54626;45.436;10.942;2023-05-24T03:07:07;100282.25;;;18.55
67829;BMP280;54626;45.436;10.942;2023-05-24T03:13:01;100285.97;;;18.48
67829;BMP280;54626;45.436;10.942;2023-05-24T03:15:28;100288.38;;;18.42
67829;BMP280;54626;45.436;10.942;2023-05-24T03:17:57;100292.75;;;18.45
67829;BMP280;54626;45.436;10.942;2023-05-24T03:20:24;100282.25;;;18.55
67829;BMP280;54626;45.436;10.942;2023-05-24T03:22:51;100282.03;;;18.62
67829;BMP280;54626;45.436;10.942;2023-05-24T03:25:20;100285.97;;;18.69
67829;BMP280;54626;45.436;10.942;2023-05-24T03:27:49;100289.69;;;18.62
67829;BMP280;54626;45.436;10.942;2023-05-24T03:30:16;100293.44;;;18.55
67829;BMP280;54626;45.436;10.942;2023-05-24T03:32:43;100290.72;;;18.45
67829;BMP280;54626;45.436;10.942;2023-05-24T03:35:09;100298.84;;;18.41
67829;BMP280;54626;45.436;10.942;2023-05-24T03:37:37;100298.44;;;18.35
67829;BMP280;54626;45.436;10.942;2023-05-24T03:40:05;100319.38;;;18.34
67829;BMP280;54626;45.436;10.942;2023-05-24T03:42:33;100324.44;;;18.26
67829;BMP280;54626;45.436;10.942;2023-05-24T03:45:00;100322.63;;;18.31
67829;BMP280;54626;45.436;10.942;2023-05-24T03:47:29;100328.47;;;18.14
67829;BMP280;54626;45.436;10.942;2023-05-24T03:50:00;100332.88;;;18.17
67829;BMP280;54626;45.436;10.942;2023-05-24T03:52:27;100328.63;;;18.16
67829;BMP280;54626;45.436;10.942;2023-05-24T03:54:53;100335.66;;;18.17
67829;BMP280;54626;45.436;10.942;2023-05-24T03:57:24;100338.75;;;18.21
67829;BMP280;54626;45.436;10.942;2023-05-24T04:02:47;100341.22;;;18.26
67829;BMP280;54626;45.436;10.942;2023-05-24T04:05:15;100339.44;;;18.31
67829;BMP280;54626;45.436;10.942;2023-05-24T04:07:42;100335.56;;;18.36
67829;BMP280;54626;45.436;10.942;2023-05-24T04:10:10;100325.25;;;18.38
67829;BMP280;54626;45.436;10.942;2023-05-24T04:12:40;100338.22;;;18.43
67829;BMP280;54626;45.436;10.942;2023-05-24T04:15:13;100339.94;;;18.48
67829;BMP280;54626;45.436;10.942;2023-05-24T04:17:41;100336.72;;;18.42
67829;BMP280;54626;45.436;10.942;2023-05-24T04:20:10;100329.94;;;18.45
67829;BMP280;54626;45.436;10.942;2023-05-24T04:22:52;100335.78;;;18.49
67829;BMP280;54626;45.436;10.942;2023-05-24T04:25:19;100337.06;;;18.58
67829;BMP280;54626;45.436;10.942;2023-05-24T04:27:48;100339.28;;;18.59
67829;BMP280;54626;45.436;10.942;2023-05-24T04:30:15;100333.84;;;18.73
67829;BMP280;54626;45.436;10.942;2023-05-24T04:32:42;100347.06;;;18.81
67829;BMP280;54626;45.436;10.942;2023-05-24T04:35:13;100336.97;;;18.88
67829;BMP280;54626;45.436;10.942;2023-05-24T04:37:45;100341.84;;;18.87
67829;BMP280;54626;45.436;10.942;2023-05-24T04:40:16;100343.13;;;18.96
67829;BMP280;54626;45.436;10.942;2023-05-24T04:42:48;100354.84;;;19.04
67829;BMP280;54626;45.436;10.942;2023-05-24T04:45:15;100354.31;;;19.17
67829;BMP280;54626;45.436;10.942;2023-05-24T04:47:42;100344.19;;;19.23
67829;BMP280;54626;45.436;10.942;2023-05-24T04:50:08;100351.31;;;19.36
67829;BMP280;54626;45.436;10.942;2023-05-24T04:52:35;100351.94;;;19.45
67829;BMP280;54626;45.436;10.942;2023-05-24T04:55:02;100352.09;;;19.59
67829;BMP280;54626;45.436;10.942;2023-05-24T04:57:36;100356.72;;;19.66
67829;BMP280;54626;45.436;10.942;2023-05-24T05:00:06;100361.13;;;19.69
67829;BMP280;54626;45.436;10.942;2023-05-24T05:02:33;100361.28;;;19.82
67829;BMP280;54626;45.436;10.942;2023-05-24T05:05:01;100358.47;;;19.94
67829;BMP280;54626;45.436;10.942;2023-05-24T05:07:28;100358.97;;;20.01
67829;BMP280;54626;45.436;10.942;2023-05-24T05:09:54;100365.06;;;20.09
67829;BMP280;54626;45.436;10.942;2023-05-24T05:12:48;100357.88;;;20.18
67829;BMP280;54626;45.436;10.942;2023-05-24T05:15:14;100364.56;;;20.24
67829;BMP280;54626;45.436;10.942;2023-05-24T05:17:41;100366.50;;;20.33
67829;BMP280;54626;45.436;10.942;2023-05-24T05:20:08;100368.25;;;20.38
67829;BMP280;54626;45.436;10.942;2023-05-24T05:22:35;100365.25;;;20.48
67829;BMP280;54626;45.436;10.942;2023-05-24T05:25:02;100367.72;;;20.53
67829;BMP280;54626;45.436;10.942;2023-05-24T05:27:34;100369.66;;;20.62
67829;BMP280;54626;45.436;10.942;2023-05-24T05:30:09;100376.22;;;20.78
67829;BMP280;54626;45.436;10.942;2023-05-24T05:32:35;100375.94;;;20.85
67829;BMP280;54626;45.436;10.942;2023-05-24T05:35:03;100382.88;;;20.96
67829;BMP280;54626;45.436;10.942;2023-05-24T05:37:30;100382.22;;;21.09
67829;BMP280;54626;45.436;10.942;2023-05-24T05:39:56;100375.06;;;21.19
67829;BMP280;54626;45.436;10.942;2023-05-24T05:42:23;100378.31;;;21.27
67829;BMP280;54626;45.436;10.942;2023-05-24T05:44:50;100378.38;;;21.40
67829;BMP280;54626;45.436;10.942;2023-05-24T05:47:18;100386.28;;;21.44
67829;BMP280;54626;45.436;10.942;2023-05-24T05:49:44;100386.16;;;21.53
67829;BMP280;54626;45.436;10.942;2023-05-24T05:52:11;100379.97;;;21.57
67829;BMP280;54626;45.436;10.942;2023-05-24T05:54:38;100385.47;;;21.41
67829;BMP280;54626;45.436;10.942;2023-05-24T05:57:05;100378.50;;;21.56
67829;BMP280;54626;45.436;10.942;2023-05-24T05:59:33;100381.16;;;21.65
67829;BMP280;54626;45.436;10.942;2023-05-24T06:02:02;100387.94;;;21.73
67829;BMP280;54626;45.436;10.942;2023-05-24T06:04:29;100389.41;;;21.88
67829;BMP280;54626;45.436;10.942;2023-05-24T06:06:55;100390.06;;;21.86
67829;BMP280;54626;45.436;10.942;2023-05-24T06:09:22;100387.16;;;21.98
67829;BMP280;54626;45.436;10.942;2023-05-24T06:11:58;100391.53;;;22.01
67829;BMP280;54626;45.436;10.942;2023-05-24T06:14:25;100397.19;;;22.14
67829;BMP280;54626;45.436;10.942;2023-05-24T06:16:52;100397.69;;;22.24
67829;BMP280;54626;45.436;10.942;2023-05-24T06:19:22;100391.44;;;22.25
67829;BMP280;54626;45.436;10.942;2023-05-24T06:21:49;100386.13;;;22.05
67829;BMP280;54626;45.436;10.942;2023-05-24T06:24:17;100391.53;;;22.27
67829;BMP280;54626;45.436;10.942;2023-05-24T06:26:51;100394.03;;;22.35
67829;BMP280;54626;45.436;10.942;2023-05-24T06:29:18;100392.25;;;22.41
67829;BMP280;54626;45.436;10.942;2023-05-24T06:31:50;100388.19;;;22.44
67829;BMP280;54626;45.436;10.942;2023-05-24T06:34:21;100392.41;;;22.59
67829;BMP280;54626;45.436;10.942;2023-05-24T06:36:48;100385.75;;;22.66
67829;BMP280;54626;45.436;10.942;2023-05-24T06:39:16;100392.81;;;22.80
67829;BMP280;54626;45.436;10.942;2023-05-24T06:41:43;100391.09;;;22.88
67829;BMP280;54626;45.436;10.942;2023-05-24T06:44:17;100394.06;;;22.90
67829;BMP280;54626;45.436;10.942;2023-05-24T06:46:44;100392.25;;;22.97
67829;BMP280;54626;45.436;10.942;2023-05-24T06:49:11;100399.91;;;22.94
67829;BMP280;54626;45.436;10.942;2023-05-24T06:51:38;100398.91;;;23.03
67829;BMP280;54626;45.436;10.942;2023-05-24T06:54:04;100388.16;;;23.00
67829;BMP280;54626;45.436;10.942;2023-05-24T06:56:31;100392.91;;;23.11
67829;BMP280;54626;45.436;10.942;2023-05-24T06:58:58;100389.03;;;23.18
67829;BMP280;54626;45.436;10.942;2023-05-24T07:01:34;100390.69;;;23.23
67829;BMP280;54626;45.436;10.942;2023-05-24T07:04:04;100388.78;;;23.42
67829;BMP280;54626;45.436;10.942;2023-05-24T07:06:42;100396.38;;;23.53
67829;BMP280;54626;45.436;10.942;2023-05-24T07:09:11;100398.28;;;23.64
67829;BMP280;54626;45.436;10.942;2023-05-24T07:11:40;100403.84;;;23.47
67829;BMP280;54626;45.436;10.942;2023-05-24T07:14:07;100395.66;;;23.68
67829;BMP280;54626;45.436;10.942;2023-05-24T07:16:33;100391.72;;;23.90
67829;BMP280;54626;45.436;10.942;2023-05-24T07:19:00;100392.81;;;23.99
67829;BMP280;54626;45.436;10.942;2023-05-24T07:21:30;100394.69;;;24.10
67829;BMP280;54626;45.436;10.942;2023-05-24T07:23:57;100393.25;;;24.09
67829;BMP280;54626;45.436;10.942;2023-05-24T07:26:23;100393.84;;;24.23
67829;BMP280;54626;45.436;10.942;2023-05-24T07:28:53;100387.66;;;24.26
67829;BMP280;54626;45.436;10.942;2023-05-24T07:31:19;100389.44;;;24.35
67829;BMP280;54626;45.436;10.942;2023-05-24T07:33:47;100387.47;;;24.22
67829;BMP280;54626;45.436;10.942;2023-05-24T07:36:13;100386.91;;;24.41
67829;BMP280;54626;45.436;10.942;2023-05-24T07:38:41;100391.09;;;24.25
67829;BMP280;54626;45.436;10.942;2023-05-24T07:41:07;100391.00;;;24.55
67829;BMP280;54626;45.436;10.942;2023-05-24T07:43:40;100393.13;;;24.72
67829;BMP280;54626;45.436;10.942;2023-05-24T07:46:07;100389.91;;;24.80
67829;BMP280;54626;45.436;10.942;2023-05-24T07:48:35;100391.59;;;24.69
67829;BMP280;54626;45.436;10.942;2023-05-24T07:51:02;100384.16;;;24.95
67829;BMP280;54626;45.436;10.942;2023-05-24T07:53:30;100387.13;;;24.99
67829;BMP280;54626;45.436;10.942;2023-05-24T07:55:57;100390.31;;;25.07
67829;BMP280;54626;45.436;10.942;2023-05-24T07:58:26;100396.13;;;24.76
67829;BMP280;54626;45.436;10.942;2023-05-24T08:00:53;100394.34;;;25.02
67829;BMP280;54626;45.436;10.942;2023-05-24T08:03:22;100398.97;;;24.93
67829;BMP280;54626;45.436;10.942;2023-05-24T08:05:51;100397.50;;;25.27
67829;BMP280;54626;45.436;10.942;2023-05-24T08:08:20;100397.50;;;25.10
67829;BMP280;54626;45.436;10.942;2023-05-24T08:10:47;100395.06;;;24.85
67829;BMP280;54626;45.436;10.942;2023-05-24T08:13:13;100400.31;;;25.10
67829;BMP280;54626;45.436;10.942;2023-05-24T08:15:40;100396.78;;;25.09
67829;BMP280;54626;45.436;10.942;2023-05-24T08:18:09;100396.44;;;25.19
67829;BMP280;54626;45.436;10.942;2023-05-24T08:20:37;100401.19;;;25.32
67829;BMP280;54626;45.436;10.942;2023-05-24T08:23:04;100400.00;;;25.56
67829;BMP280;54626;45.436;10.942;2023-05-24T08:25:30;100395.75;;;25.37
67829;BMP280;54626;45.436;10.942;2023-05-24T08:28:10;100401.69;;;25.43
67829;BMP280;54626;45.436;10.942;2023-05-24T08:30:37;100401.75;;;25.28
67829;BMP280;54626;45.436;10.942;2023-05-24T08:33:11;100402.09;;;25.36
67829;BMP280;54626;45.436;10.942;2023-05-24T08:35:38;100408.97;;;25.31
67829;BMP280;54626;45.436;10.942;2023-05-24T08:38:06;100402.31;;;25.42
67829;BMP280;54626;45.436;10.942;2023-05-24T08:40:32;100397.50;;;25.27
67829;BMP280;54626;45.436;10.942;2023-05-24T08:43:02;100400.66;;;25.54
67829;BMP280;54626;45.436;10.942;2023-05-24T08:45:35;100407.09;;;25.74
67829;BMP280;54626;45.436;10.942;2023-05-24T08:48:04;100408.16;;;25.85
67829;BMP280;54626;45.436;10.942;2023-05-24T08:50:33;100406.72;;;25.64
67829;BMP280;54626;45.436;10.942;2023-05-24T08:53:05;100411.66;;;25.83
67829;BMP280;54626;45.436;10.942;2023-05-24T08:55:32;100407.31;;;25.80
67829;BMP280;54626;45.436;10.942;2023-05-24T08:57:59;100406.06;;;25.85
67829;BMP280;54626;45.436;10.942;2023-05-24T09:00:29;100412.47;;;25.86
67829;BMP280;54626;45.436;10.942;2023-05-24T09:02:57;100411.81;;;25.87
67829;BMP280;54626;45.436;10.942;2023-05-24T09:05:28;100418.00;;;26.01
67829;BMP280;54626;45.436;10.942;2023-05-24T09:07:59;100409.09;;;26.10
67829;BMP280;54626;45.436;10.942;2023-05-24T09:10:34;100401.25;;;26.09
67829;BMP280;54626;45.436;10.942;2023-05-24T09:13:22;100397.53;;;26.45
67829;BMP280;54626;45.436;10.942;2023-05-24T09:15:51;100399.47;;;26.81
67829;BMP280;54626;45.436;10.942;2023-05-24T09:18:33;100410.44;;;26.69
67829;BMP280;54626;45.436;10.942;2023-05-24T09:21:27;100404.88;;;26.73
67829;BMP280;54626;45.436;10.942;2023-05-24T09:23:54;100405.72;;;26.78
67829;BMP280;54626;45.436;10.942;2023-05-24T09:26:21;100399.00;;;26.67
67829;BMP280;54626;45.436;10.942;2023-05-24T09:29:25;100384.34;;;26.53
67829;BMP280;54626;45.436;10.942;2023-05-24T09:31:55;100404.84;;;26.94
67829;BMP280;54626;45.436;10.942;2023-05-24T09:34:37;100402.91;;;26.56
67829;BMP280;54626;45.436;10.942;2023-05-24T09:37:18;100395.34;;;26.86
67829;BMP280;54626;45.436;10.942;2023-05-24T09:39:53;100392.59;;;26.88
67829;BMP280;54626;45.436;10.942;2023-05-24T09:42:22;100393.19;;;27.08
67829;BMP280;54626;45.436;10.942;2023-05-24T09:45:01;100394.88;;;27.17
67829;BMP280;54626;45.436;10.942;2023-05-24T09:47:34;100393.31;;;27.12
67829;BMP280;54626;45.436;10.942;2023-05-24T09:50:01;100389.09;;;27.13
67829;BMP280;54626;45.436;10.942;2023-05-24T09:53:12;100392.88;;;27.21
67829;BMP280;54626;45.436;10.942;2023-05-24T09:55:38;100400.03;;;26.99
67829;BMP280;54626;45.436;10.942;2023-05-24T10:02:07;100407.59;;;27.37
67829;BMP280;54626;45.436;10.942;2023-05-24T10:04:38;100403.22;;;27.57
67829;BMP280;54626;45.436;10.942;2023-05-24T10:07:07;100391.28;;;27.63
67829;BMP280;54626;45.436;10.942;2023-05-24T10:09:34;100392.06;;;27.65
67829;BMP280;54626;45.436;10.942;2023-05-24T10:12:05;100391.44;;;27.43
67829;BMP280;54626;45.436;10.942;2023-05-24T10:14:34;100392.00;;;27.63
67829;BMP280;54626;45.436;10.942;2023-05-24T10:17:09;100384.69;;;27.82
67829;BMP280;54626;45.436;10.942;2023-05-24T10:19:37;100396.59;;;27.99
67829;BMP280;54626;45.436;10.942;2023-05-24T10:22:08;100397.97;;;27.98
67829;BMP280;54626;45.436;10.942;2023-05-24T10:24:43;100391.75;;;28.06
67829;BMP280;54626;45.436;10.942;2023-05-24T10:27:13;100395.88;;;28.26
67829;BMP280;54626;45.436;10.942;2023-05-24T10:29:53;100384.66;;;27.54
67829;BMP280;54626;45.436;10.942;2023-05-24T10:32:27;100393.31;;;27.85
67829;BMP280;54626;45.436;10.942;2023-05-24T10:34:59;100400.34;;;27.82
67829;BMP280;54626;45.436;10.942;2023-05-24T10:37:31;100401.94;;;27.87
67829;BMP280;54626;45.436;10.942;2023-05-24T10:40:04;100393.53;;;28.19
67829;BMP280;54626;45.436;10.942;2023-05-24T10:42:37;100383.22;;;28.62
67829;BMP280;54626;45.436;10.942;2023-05-24T10:47:53;100380.53;;;28.99
67829;BMP280;54626;45.436;10.942;2023-05-24T10:50:33;100374.84;;;28.99
67829;BMP280;54626;45.436;10.942;2023-05-24T10:53:16;100387.19;;;28.78
67829;BMP280;54626;45.436;10.942;2023-05-24T10:55:55;100381.72;;;29.22
67829;BMP280;54626;45.436;10.942;2023-05-24T11:01:53;100384.00;;;29.64
67829;BMP280;54626;45.436;10.942;2023-05-24T11:04:29;100366.84;;;29.99
67829;BMP280;54626;45.436;10.942;2023-05-24T11:07:04;100374.34;;;29.81
67829;BMP280;54626;45.436;10.942;2023-05-24T11:09:41;100380.44;;;29.64
67829;BMP280;54626;45.436;10.942;2023-05-24T11:12:17;100382.63;;;29.30
67829;BMP280;54626;45.436;10.942;2023-05-24T11:14:51;100370.41;;;29.25
67829;BMP280;54626;45.436;10.942;2023-05-24T11:17:22;100367.56;;;29.25
67829;BMP280;54626;45.436;10.942;2023-05-24T11:19:53;100351.69;;;29.17
67829;BMP280;54626;45.436;10.942;2023-05-24T11:22:23;100352.59;;;29.60
67829;BMP280;54626;45.436;10.942;2023-05-24T11:24:51;100354.91;;;28.99
67829;BMP280;54626;45.436;10.942;2023-05-24T11:27:29;100354.22;;;29.01
67829;BMP280;54626;45.436;10.942;2023-05-24T11:29:56;100363.34;;;29.64
67829;BMP280;54626;45.436;10.942;2023-05-24T11:32:23;100349.63;;;29.93
67829;BMP280;54626;45.436;10.942;2023-05-24T11:34:52;100352.22;;;30.20
67829;BMP280;54626;45.436;10.942;2023-05-24T11:37:33;100348.75;;;29.85
67829;BMP280;54626;45.436;10.942;2023-05-24T11:40:23;100341.78;;;29.20
67829;BMP280;54626;45.436;10.942;2023-05-24T11:42:57;100343.09;;;29.15
67829;BMP280;54626;45.436;10.942;2023-05-24T11:45:39;100337.13;;;29.36
67829;BMP280;54626;45.436;10.942;2023-05-24T11:48:23;100344.34;;;29.41
67829;BMP280;54626;45.436;10.942;2023-05-24T11:50:52;100322.78;;;29.69
67829;BMP280;54626;45.436;10.942;2023-05-24T11:53:22;100321.19;;;29.99
67829;BMP280;54626;45.436;10.942;2023-05-24T11:56:19;100322.03;;;30.08
67829;BMP280;54626;45.436;10.942;2023-05-24T11:59:08;100320.53;;;30.05
67829;BMP280;54626;45.436;10.942;2023-05-24T12:01:35;100303.53;;;30.11
67829;BMP280;54626;45.436;10.942;2023-05-24T12:04:28;100301.72;;;30.31
67829;BMP280;54626;45.436;10.942;2023-05-24T12:06:57;100301.75;;;29.90
67829;BMP280;54626;45.436;10.942;2023-05-24T12:09:24;100297.72;;;30.05
67829;BMP280;54626;45.436;10.942;2023-05-24T12:11:52;100297.53;;;30.40
67829;BMP280;54626;45.436;10.942;2023-05-24T12:14:28;100302.16;;;30.15
67829;BMP280;54626;45.436;10.942;2023-05-24T12:16:58;100294.38;;;30.67
67829;BMP280;54626;45.436;10.942;2023-05-24T12:19:31;100297.84;;;30.61
67829;BMP280;54626;45.436;10.942;2023-05-24T12:22:03;100307.31;;;30.72
67829;BMP280;54626;45.436;10.942;2023-05-24T12:24:36;100294.56;;;30.32
67829;BMP280;54626;45.436;10.942;2023-05-24T12:27:03;100290.97;;;29.45
67829;BMP280;54626;45.436;10.942;2023-05-24T12:29:39;100297.53;;;29.52
67829;BMP280;54626;45.436;10.942;2023-05-24T12:32:11;100299.78;;;29.98
67829;BMP280;54626;45.436;10.942;2023-05-24T12:34:41;100296.56;;;30.21
67829;BMP280;54626;45.436;10.942;2023-05-24T12:37:08;100302.47;;;30.35
67829;BMP280;54626;45.436;10.942;2023-05-24T12:39:35;100304.94;;;30.57
67829;BMP280;54626;45.436;10.942;2023-05-24T12:42:03;100301.97;;;30.49
67829;BMP280;54626;45.436;10.942;2023-05-24T12:44:36;100303.94;;;30.36
67829;BMP280;54626;45.436;10.942;2023-05-24T12:47:04;100297.63;;;30.46
67829;BMP280;54626;45.436;10.942;2023-05-24T12:50:04;100298.38;;;30.48
67829;BMP280;54626;45.436;10.942;2023-05-24T12:52:31;100297.34;;;30.75
67829;BMP280;54626;45.436;10.942;2023-05-24T12:54:59;100287.44;;;30.82
67829;BMP280;54626;45.436;10.942;2023-05-24T12:57:28;100279.41;;;30.68
67829;BMP280;54626;45.436;10.942;2023-05-24T13:03:22;100270.13;;;30.70
67829;BMP280;54626;45.436;10.942;2023-05-24T13:05:49;100275.47;;;30.97
67829;BMP280;54626;45.436;10.942;2023-05-24T13:08:16;100269.22;;;31.12
67829;BMP280;54626;45.436;10.942;2023-05-24T13:10:45;100262.41;;;31.47
67829;BMP280;54626;45.436;10.942;2023-05-24T13:13:12;100263.34;;;31.73
67829;BMP280;54626;45.436;10.942;2023-05-24T13:15:38;100265.25;;;31.45
67829;BMP280;54626;45.436;10.942;2023-05-24T13:18:07;100265.53;;;31.75
67829;BMP280;54626;45.436;10.942;2023-05-24T13:20:36;100262.47;;;31.55
67829;BMP280;54626;45.436;10.942;2023-05-24T13:23:58;100262.38;;;30.80
67829;BMP280;54626;45.436;10.942;2023-05-24T13:26:54;100257.22;;;30.67
67829;BMP280;54626;45.436;10.942;2023-05-24T13:29:21;100270.50;;;31.00
67829;BMP280;54626;45.436;10.942;2023-05-24T13:32:07;100259.53;;;31.47
67829;BMP280;54626;45.436;10.942;2023-05-24T13:34:57;100265.09;;;31.27
67829;BMP280;54626;45.436;10.942;2023-05-24T13:37:26;100260.25;;;31.44
67829;BMP280;54626;45.436;10.942;2023-05-24T13:40:10;100263.84;;;31.46
67829;BMP280;54626;45.436;10.942;2023-05-24T13:42:37;100263.53;;;31.16
67829;BMP280;54626;45.436;10.942;2023-05-24T13:45:12;100262.41;;;31.49
67829;BMP280;54626;45.436;10.942;2023-05-24T13:47:39;100266.84;;;31.64
67829;BMP280;54626;45.436;10.942;2023-05-24T13:50:07;100252.50;;;31.58
67829;BMP280;54626;45.436;10.942;2023-05-24T13:52:34;100265.28;;;31.49
67829;BMP280;54626;45.436;10.942;2023-05-24T13:55:02;100258.31;;;31.70
67829;BMP280;54626;45.436;10.942;2023-05-24T13:57:30;100253.41;;;31.82
67829;BMP280;54626;45.436;10.942;2023-05-24T14:00:25;100262.97;;;32.24
67829;BMP280;54626;45.436;10.942;2023-05-24T14:03:05;100247.28;;;32.31
67829;BMP280;54626;45.436;10.942;2023-05-24T14:05:46;100253.06;;;32.43
67829;BMP280;54626;45.436;10.942;2023-05-24T14:08:13;100251.56;;;32.28
67829;BMP280;54626;45.436;10.942;2023-05-24T14:10:39;100252.13;;;32.05
67829;BMP280;54626;45.436;10.942;2023-05-24T14:13:06;100237.09;;;32.06
67829;BMP280;54626;45.436;10.942;2023-05-24T14:15:36;100239.78;;;31.81
67829;BMP280;54626;45.436;10.942;2023-05-24T14:18:03;100224.72;;;31.76
67829;BMP280;54626;45.436;10.942;2023-05-24T14:20:34;100215.25;;;31.50
67829;BMP280;54626;45.436;10.942;2023-05-24T14:23:08;100222.16;;;31.23
67829;BMP280;54626;45.436;10.942;2023-05-24T14:25:35;100220.94;;;31.48
67829;BMP280;54626;45.436;10.942;2023-05-24T14:28:02;100226.63;;;31.42
67829;BMP280;54626;45.436;10.942;2023-05-24T14:30:32;100228.41;;;31.91
67829;BMP280;54626;45.436;10.942;2023-05-24T14:32:59;100229.13;;;31.93
67829;BMP280;54626;45.436;10.942;2023-05-24T14:35:28;100232.81;;;32.07
67829;BMP280;54626;45.436;10.942;2023-05-24T14:37:54;100231.00;;;31.55
67829;BMP280;54626;45.436;10.942;2023-05-24T14:40:21;100229.59;;;31.56